ELY394 LEBL-LLBG
Flight info
| Callsign | ELY394 |
|---|---|
| Flight time | 3h 47m |
| Altitude | 32000 |
| Route | DIPES N725 LAPIT/N0452F340 N725 OSPOK/N0452F330 DCT NOLVI DCT ORKUM/N0451F340 DCT ELSAG DCT ALG/N0451F330 DCT DIRED/N0451F350 DCT LODPA DCT CRN DCT ADREN DCT TOMGI DCT RUTOM UM601 TRL DCT VANZA DCT PIKOG L609 ZUKKO |
| Aircraft | B738/M-SDE2E3FGHIRWXY/LB1 |
Departure
| Time | 2026-04-30 09:00 |
|---|---|
| Airport | Josep Tarradellas Barcelona-El Prat Airport (LEBL) |
Arrival
| Time | 2026-04-30 12:48 |
|---|---|
| Airport | Ben Gurion International Airport (LLBG) |
| Time | Latitude | Longitude | Altitude | Speed | Heading |
|---|---|---|---|---|---|
| 2026-04-30 07:45 | 41.29054 | 2.07102 | 3 ft | 0 kts | 155° |
| 2026-04-30 08:45 | 41.29062 | 2.07097 | 2 ft | 4 kts | 155° |
| 2026-04-30 08:46 | 41.29086 | 2.07082 | 2 ft | 4 kts | 155° |
| 2026-04-30 08:46 | 41.29105 | 2.07070 | 2 ft | 4 kts | 137° |
| 2026-04-30 08:46 | 41.29112 | 2.07046 | 4 ft | 4 kts | 67° |
| 2026-04-30 08:46 | 41.29105 | 2.07026 | 4 ft | 4 kts | 65° |
| 2026-04-30 08:47 | 41.29102 | 2.07016 | 4 ft | 0 kts | 65° |
| 2026-04-30 08:50 | 41.29103 | 2.07020 | 4 ft | 1 kts | 65° |
| 2026-04-30 08:51 | 41.29111 | 2.07044 | 4 ft | 5 kts | 65° |
| 2026-04-30 08:51 | 41.29130 | 2.07097 | 2 ft | 8 kts | 65° |
| 2026-04-30 08:51 | 41.29157 | 2.07176 | 2 ft | 11 kts | 65° |
| 2026-04-30 08:51 | 41.29192 | 2.07277 | 4 ft | 13 kts | 65° |
| 2026-04-30 08:52 | 41.29233 | 2.07397 | 2 ft | 14 kts | 65° |
| 2026-04-30 08:52 | 41.29273 | 2.07515 | 2 ft | 14 kts | 65° |
| 2026-04-30 08:52 | 41.29345 | 2.07580 | 2 ft | 13 kts | 38° |
| 2026-04-30 08:52 | 41.29385 | 2.07687 | 2 ft | 13 kts | 66° |
| 2026-04-30 08:53 | 41.29421 | 2.07793 | 2 ft | 12 kts | 65° |
| 2026-04-30 08:53 | 41.29457 | 2.07897 | 2 ft | 12 kts | 65° |
| 2026-04-30 08:53 | 41.29492 | 2.07997 | 2 ft | 12 kts | 65° |
| 2026-04-30 08:53 | 41.29526 | 2.08095 | 3 ft | 12 kts | 65° |
| 2026-04-30 08:54 | 41.29559 | 2.08190 | 2 ft | 11 kts | 65° |
| 2026-04-30 08:54 | 41.29539 | 2.08277 | 2 ft | 11 kts | 150° |
| 2026-04-30 08:54 | 41.29471 | 2.08319 | 2 ft | 11 kts | 155° |
| 2026-04-30 08:54 | 41.29406 | 2.08358 | 4 ft | 10 kts | 155° |
| 2026-04-30 08:55 | 41.29339 | 2.08399 | 3 ft | 11 kts | 155° |
| 2026-04-30 08:55 | 41.29269 | 2.08441 | 2 ft | 11 kts | 155° |
| 2026-04-30 08:55 | 41.29192 | 2.08446 | 2 ft | 12 kts | 198° |
| 2026-04-30 08:55 | 41.29113 | 2.08410 | 2 ft | 12 kts | 199° |
| 2026-04-30 08:56 | 41.29030 | 2.08372 | 2 ft | 13 kts | 199° |
| 2026-04-30 08:56 | 41.28943 | 2.08332 | 2 ft | 14 kts | 199° |
| 2026-04-30 08:56 | 41.28851 | 2.08289 | 2 ft | 14 kts | 199° |
| 2026-04-30 08:56 | 41.28757 | 2.08246 | 2 ft | 15 kts | 199° |
| 2026-04-30 08:57 | 41.28673 | 2.08179 | 2 ft | 14 kts | 241° |
| 2026-04-30 08:57 | 41.28632 | 2.08060 | 2 ft | 14 kts | 245° |
| 2026-04-30 08:57 | 41.28592 | 2.07946 | 2 ft | 13 kts | 245° |
| 2026-04-30 08:57 | 41.28555 | 2.07837 | 2 ft | 13 kts | 246° |
| 2026-04-30 08:58 | 41.28518 | 2.07730 | 2 ft | 12 kts | 245° |
| 2026-04-30 08:58 | 41.28480 | 2.07628 | 3 ft | 12 kts | 242° |
| 2026-04-30 08:58 | 41.28415 | 2.07563 | 2 ft | 12 kts | 201° |
| 2026-04-30 08:58 | 41.28340 | 2.07524 | 4 ft | 12 kts | 201° |
| 2026-04-30 08:59 | 41.28293 | 2.07446 | 6 ft | 9 kts | 243° |
| 2026-04-30 08:59 | 41.28257 | 2.07429 | 7 ft | 6 kts | 145° |
| 2026-04-30 08:59 | 41.28244 | 2.07479 | 7 ft | 6 kts | 83° |
| 2026-04-30 08:59 | 41.28256 | 2.07520 | 9 ft | 0 kts | 65° |
| 2026-04-30 09:00 | 41.28275 | 2.07575 | 9 ft | 28 kts | 65° |
| 2026-04-30 09:00 | 41.28460 | 2.08114 | 6 ft | 98 kts | 65° |
| 2026-04-30 09:00 | 41.28829 | 2.09190 | 6 ft | 156 kts | 65° |
| 2026-04-30 09:00 | 41.29294 | 2.10524 | 661 ft | 154 kts | 66° |
| 2026-04-30 09:01 | 41.29493 | 2.11942 | 1312 ft | 165 kts | 96° |
| 2026-04-30 09:01 | 41.29321 | 2.13471 | 1981 ft | 171 kts | 97° |
| 2026-04-30 09:01 | 41.29119 | 2.15091 | 2533 ft | 183 kts | 98° |
| 2026-04-30 09:01 | 41.28923 | 2.16788 | 3203 ft | 188 kts | 97° |
| 2026-04-30 09:02 | 41.28563 | 2.20290 | 4558 ft | 192 kts | 97° |
| 2026-04-30 09:02 | 41.28391 | 2.22056 | 5201 ft | 196 kts | 98° |
| 2026-04-30 09:02 | 41.28211 | 2.23936 | 5475 ft | 213 kts | 98° |
| 2026-04-30 09:03 | 41.28024 | 2.25899 | 5896 ft | 219 kts | 99° |
| 2026-04-30 09:03 | 41.27831 | 2.27932 | 6377 ft | 224 kts | 99° |
| 2026-04-30 09:03 | 41.27636 | 2.30002 | 6877 ft | 227 kts | 99° |
| 2026-04-30 09:03 | 41.27428 | 2.32110 | 7260 ft | 238 kts | 100° |
| 2026-04-30 09:04 | 41.27188 | 2.34373 | 7486 ft | 254 kts | 100° |
| 2026-04-30 09:04 | 41.26929 | 2.36791 | 7727 ft | 276 kts | 100° |
| 2026-04-30 09:04 | 41.26656 | 2.39356 | 8292 ft | 283 kts | 100° |
| 2026-04-30 09:04 | 41.26380 | 2.41971 | 8997 ft | 288 kts | 100° |
| 2026-04-30 09:05 | 41.26099 | 2.44627 | 9662 ft | 292 kts | 100° |
| 2026-04-30 09:05 | 41.25817 | 2.47287 | 10316 ft | 297 kts | 100° |
| 2026-04-30 09:05 | 41.25518 | 2.50083 | 10557 ft | 317 kts | 100° |
| 2026-04-30 09:05 | 41.25195 | 2.53086 | 10726 ft | 338 kts | 99° |
| 2026-04-30 09:06 | 41.25233 | 2.56302 | 10936 ft | 359 kts | 78° |
| 2026-04-30 09:06 | 41.26238 | 2.59370 | 11467 ft | 368 kts | 57° |
| 2026-04-30 09:06 | 41.27731 | 2.62132 | 12192 ft | 369 kts | 54° |
| 2026-04-30 09:06 | 41.29253 | 2.64901 | 12817 ft | 373 kts | 54° |
| 2026-04-30 09:07 | 41.30915 | 2.67577 | 13416 ft | 379 kts | 41° |
| 2026-04-30 09:07 | 41.33138 | 2.69451 | 14031 ft | 382 kts | 22° |
| 2026-04-30 09:07 | 41.35641 | 2.70654 | 14648 ft | 383 kts | 18° |
| 2026-04-30 09:07 | 41.38181 | 2.71813 | 15197 ft | 388 kts | 18° |
| 2026-04-30 09:08 | 41.40736 | 2.73012 | 15752 ft | 391 kts | 19° |
| 2026-04-30 09:08 | 41.43316 | 2.74249 | 16313 ft | 395 kts | 19° |
| 2026-04-30 09:08 | 41.45875 | 2.75513 | 16857 ft | 398 kts | 22° |
| 2026-04-30 09:08 | 41.48214 | 2.77513 | 17365 ft | 404 kts | 44° |
| 2026-04-30 09:09 | 41.49904 | 2.80497 | 17905 ft | 407 kts | 64° |
| 2026-04-30 09:09 | 41.50798 | 2.84076 | 18445 ft | 408 kts | 83° |
| 2026-04-30 09:09 | 41.50845 | 2.87852 | 18879 ft | 409 kts | 95° |
| 2026-04-30 09:09 | 41.50646 | 2.91652 | 19317 ft | 412 kts | 97° |
| 2026-04-30 09:10 | 41.50003 | 2.95360 | 19685 ft | 412 kts | 116° |
| 2026-04-30 09:10 | 41.48537 | 2.98627 | 20140 ft | 409 kts | 134° |
| 2026-04-30 09:10 | 41.46563 | 3.01341 | 20620 ft | 408 kts | 139° |
| 2026-04-30 09:10 | 41.44507 | 3.03977 | 21034 ft | 412 kts | 140° |
| 2026-04-30 09:11 | 41.42427 | 3.06640 | 21447 ft | 416 kts | 140° |
| 2026-04-30 09:11 | 41.40343 | 3.09344 | 21873 ft | 419 kts | 139° |
| 2026-04-30 09:11 | 41.38259 | 3.12084 | 22296 ft | 423 kts | 139° |
| 2026-04-30 09:11 | 41.36189 | 3.14819 | 22694 ft | 426 kts | 139° |
| 2026-04-30 09:12 | 41.34075 | 3.17612 | 23096 ft | 429 kts | 139° |
| 2026-04-30 09:12 | 41.31948 | 3.20415 | 23494 ft | 432 kts | 140° |
| 2026-04-30 09:12 | 41.29803 | 3.23236 | 23848 ft | 435 kts | 140° |
| 2026-04-30 09:12 | 41.27638 | 3.26080 | 24181 ft | 438 kts | 140° |
| 2026-04-30 09:13 | 41.25463 | 3.28935 | 24508 ft | 441 kts | 140° |
| 2026-04-30 09:13 | 41.23277 | 3.31805 | 24829 ft | 443 kts | 140° |
| 2026-04-30 09:13 | 41.21075 | 3.34691 | 25138 ft | 446 kts | 140° |
| 2026-04-30 09:13 | 41.18859 | 3.37594 | 25449 ft | 449 kts | 140° |
| 2026-04-30 09:14 | 41.16631 | 3.40512 | 25757 ft | 451 kts | 140° |
| 2026-04-30 09:14 | 41.14383 | 3.43452 | 26048 ft | 454 kts | 140° |
| 2026-04-30 09:14 | 41.12125 | 3.46402 | 26338 ft | 457 kts | 140° |
| 2026-04-30 09:14 | 41.09853 | 3.49367 | 26624 ft | 459 kts | 140° |
| 2026-04-30 09:15 | 41.07611 | 3.52403 | 26890 ft | 466 kts | 133° |
| 2026-04-30 09:15 | 41.05906 | 3.56107 | 27105 ft | 478 kts | 114° |
| 2026-04-30 09:15 | 41.04984 | 3.60364 | 27428 ft | 483 kts | 105° |
| 2026-04-30 09:15 | 41.04262 | 3.64721 | 27712 ft | 486 kts | 104° |
| 2026-04-30 09:16 | 41.03548 | 3.69112 | 27937 ft | 489 kts | 105° |
| 2026-04-30 09:16 | 41.02809 | 3.73462 | 28172 ft | 492 kts | 105° |
| 2026-04-30 09:16 | 41.02022 | 3.77879 | 28433 ft | 493 kts | 106° |
| 2026-04-30 09:16 | 41.01216 | 3.82301 | 28694 ft | 495 kts | 106° |
| 2026-04-30 09:17 | 41.00404 | 3.86751 | 28941 ft | 498 kts | 106° |
| 2026-04-30 09:17 | 40.99592 | 3.91215 | 29180 ft | 500 kts | 106° |
| 2026-04-30 09:17 | 40.98777 | 3.95701 | 29414 ft | 502 kts | 105° |
| 2026-04-30 09:17 | 40.97959 | 4.00196 | 29652 ft | 504 kts | 105° |
| 2026-04-30 09:18 | 40.97136 | 4.04717 | 29927 ft | 505 kts | 105° |
| 2026-04-30 09:18 | 40.96312 | 4.09230 | 30261 ft | 504 kts | 105° |
| 2026-04-30 09:18 | 40.95486 | 4.13738 | 30568 ft | 503 kts | 105° |
| 2026-04-30 09:18 | 40.94671 | 4.18177 | 30835 ft | 503 kts | 106° |
| 2026-04-30 09:19 | 40.93832 | 4.22737 | 31076 ft | 503 kts | 106° |
| 2026-04-30 09:19 | 40.93012 | 4.27176 | 31329 ft | 503 kts | 106° |
| 2026-04-30 09:19 | 40.92181 | 4.31669 | 31599 ft | 503 kts | 106° |
| 2026-04-30 09:19 | 40.91348 | 4.36166 | 31859 ft | 502 kts | 106° |
| 2026-04-30 09:20 | 40.90514 | 4.40657 | 32102 ft | 503 kts | 106° |
| 2026-04-30 09:20 | 40.89678 | 4.45145 | 32337 ft | 503 kts | 106° |
| 2026-04-30 09:20 | 40.88845 | 4.49630 | 32587 ft | 502 kts | 105° |
| 2026-04-30 09:20 | 40.88020 | 4.54115 | 32836 ft | 502 kts | 105° |
| 2026-04-30 09:21 | 40.87196 | 4.58602 | 33065 ft | 502 kts | 105° |
| 2026-04-30 09:21 | 40.86369 | 4.63090 | 33289 ft | 502 kts | 105° |
| 2026-04-30 09:21 | 40.85574 | 4.67578 | 33525 ft | 503 kts | 102° |
| 2026-04-30 09:21 | 40.85034 | 4.72152 | 33752 ft | 503 kts | 98° |
| 2026-04-30 09:22 | 40.84613 | 4.76745 | 33976 ft | 504 kts | 97° |
| 2026-04-30 09:22 | 40.84235 | 4.81344 | 34168 ft | 504 kts | 97° |
| 2026-04-30 09:22 | 40.83860 | 4.85949 | 34373 ft | 503 kts | 97° |
| 2026-04-30 09:22 | 40.83477 | 4.90483 | 34575 ft | 502 kts | 97° |
| 2026-04-30 09:23 | 40.83072 | 4.95062 | 34758 ft | 502 kts | 98° |
| 2026-04-30 09:23 | 40.82651 | 4.99640 | 34924 ft | 502 kts | 98° |
| 2026-04-30 09:23 | 40.82221 | 5.04223 | 35066 ft | 503 kts | 98° |
| 2026-04-30 09:23 | 40.81783 | 5.08813 | 35064 ft | 505 kts | 98° |
| 2026-04-30 09:24 | 40.80902 | 5.17994 | 35070 ft | 502 kts | 98° |
| 2026-04-30 09:24 | 40.80020 | 5.27140 | 35070 ft | 500 kts | 98° |
| 2026-04-30 09:25 | 40.79145 | 5.36169 | 35074 ft | 498 kts | 98° |
| 2026-04-30 09:25 | 40.78258 | 5.45233 | 35074 ft | 497 kts | 98° |
| 2026-04-30 09:26 | 40.77367 | 5.54270 | 35076 ft | 497 kts | 98° |
| 2026-04-30 09:26 | 40.76466 | 5.63327 | 35075 ft | 498 kts | 98° |
| 2026-04-30 09:27 | 40.75558 | 5.72394 | 35075 ft | 499 kts | 98° |
| 2026-04-30 09:27 | 40.74639 | 5.81493 | 35076 ft | 501 kts | 98° |
| 2026-04-30 09:28 | 40.73711 | 5.90612 | 35073 ft | 503 kts | 98° |
| 2026-04-30 09:28 | 40.72772 | 5.99754 | 35077 ft | 504 kts | 98° |
| 2026-04-30 09:29 | 40.71824 | 6.08857 | 35074 ft | 505 kts | 98° |
| 2026-04-30 09:29 | 40.70862 | 6.18023 | 35072 ft | 505 kts | 98° |
| 2026-04-30 09:30 | 40.69893 | 6.27189 | 35073 ft | 505 kts | 98° |
| 2026-04-30 09:30 | 40.68920 | 6.36340 | 35072 ft | 504 kts | 98° |
| 2026-04-30 09:31 | 40.67939 | 6.45491 | 35074 ft | 503 kts | 98° |
| 2026-04-30 09:31 | 40.66953 | 6.54610 | 35075 ft | 502 kts | 98° |
| 2026-04-30 09:32 | 40.65962 | 6.63715 | 35071 ft | 501 kts | 98° |
| 2026-04-30 09:32 | 40.64967 | 6.72790 | 35073 ft | 500 kts | 98° |
| 2026-04-30 09:33 | 40.63966 | 6.81849 | 35074 ft | 500 kts | 98° |
| 2026-04-30 09:33 | 40.62959 | 6.90896 | 35074 ft | 499 kts | 98° |
| 2026-04-30 09:34 | 40.61946 | 6.99928 | 35071 ft | 499 kts | 98° |
| 2026-04-30 09:34 | 40.61099 | 7.07433 | 35073 ft | 499 kts | 98° |
| 2026-04-30 09:35 | 40.60073 | 7.16472 | 35071 ft | 499 kts | 98° |
| 2026-04-30 09:35 | 40.59040 | 7.25495 | 35072 ft | 499 kts | 98° |
| 2026-04-30 09:36 | 40.58000 | 7.34532 | 35070 ft | 499 kts | 98° |
| 2026-04-30 09:36 | 40.56952 | 7.43569 | 35069 ft | 499 kts | 98° |
| 2026-04-30 09:37 | 40.56628 | 7.52643 | 35057 ft | 496 kts | 82° |
| 2026-04-30 09:37 | 40.57463 | 7.61638 | 35069 ft | 495 kts | 80° |
| 2026-04-30 09:38 | 40.58316 | 7.70591 | 35069 ft | 496 kts | 81° |
| 2026-04-30 09:38 | 40.59101 | 7.79618 | 35064 ft | 496 kts | 81° |
| 2026-04-30 09:39 | 40.59856 | 7.88656 | 35061 ft | 496 kts | 81° |
| 2026-04-30 09:39 | 40.60608 | 7.97686 | 35055 ft | 496 kts | 81° |
| 2026-04-30 09:40 | 40.61351 | 8.06655 | 35054 ft | 496 kts | 81° |
| 2026-04-30 09:40 | 40.62092 | 8.15680 | 35050 ft | 495 kts | 81° |
| 2026-04-30 09:41 | 40.62618 | 8.24722 | 35048 ft | 497 kts | 90° |
| 2026-04-30 09:41 | 40.61647 | 8.33732 | 35053 ft | 498 kts | 100° |
| 2026-04-30 09:42 | 40.60291 | 8.42678 | 35050 ft | 498 kts | 100° |
| 2026-04-30 09:42 | 40.58953 | 8.51607 | 35055 ft | 498 kts | 100° |
| 2026-04-30 09:43 | 40.57655 | 8.60549 | 35056 ft | 498 kts | 99° |
| 2026-04-30 09:43 | 40.56369 | 8.69489 | 35064 ft | 497 kts | 99° |
| 2026-04-30 09:44 | 40.55081 | 8.78412 | 35066 ft | 496 kts | 99° |
| 2026-04-30 09:44 | 40.53794 | 8.87265 | 35076 ft | 496 kts | 99° |
| 2026-04-30 09:45 | 40.52489 | 8.96175 | 35085 ft | 496 kts | 99° |
| 2026-04-30 09:45 | 40.51177 | 9.05077 | 35080 ft | 496 kts | 99° |
| 2026-04-30 09:46 | 40.49861 | 9.13962 | 35086 ft | 495 kts | 99° |
| 2026-04-30 09:46 | 40.48538 | 9.22847 | 35092 ft | 495 kts | 99° |
| 2026-04-30 09:47 | 40.47216 | 9.31672 | 35101 ft | 495 kts | 99° |
| 2026-04-30 09:47 | 40.45879 | 9.40550 | 35101 ft | 495 kts | 99° |
| 2026-04-30 09:48 | 40.44535 | 9.49422 | 35103 ft | 494 kts | 99° |
| 2026-04-30 09:48 | 40.43188 | 9.58271 | 35117 ft | 494 kts | 99° |
| 2026-04-30 09:49 | 40.41833 | 9.67127 | 35109 ft | 495 kts | 99° |
| 2026-04-30 09:49 | 40.40472 | 9.75970 | 35108 ft | 495 kts | 99° |
| 2026-04-30 09:50 | 40.39111 | 9.84769 | 35115 ft | 495 kts | 99° |
| 2026-04-30 09:50 | 40.37734 | 9.93621 | 35115 ft | 495 kts | 100° |
| 2026-04-30 09:51 | 40.36349 | 10.02477 | 35118 ft | 495 kts | 100° |
| 2026-04-30 09:51 | 40.34958 | 10.11325 | 35115 ft | 495 kts | 100° |
| 2026-04-30 09:52 | 40.33560 | 10.20171 | 35115 ft | 496 kts | 100° |
| 2026-04-30 09:52 | 40.32155 | 10.29020 | 35116 ft | 496 kts | 100° |
| 2026-04-30 09:53 | 40.30750 | 10.37818 | 35113 ft | 496 kts | 100° |
| 2026-04-30 09:53 | 40.29330 | 10.46663 | 35119 ft | 496 kts | 100° |
| 2026-04-30 09:54 | 40.27903 | 10.55512 | 35114 ft | 496 kts | 100° |
| 2026-04-30 09:54 | 40.26469 | 10.64356 | 35116 ft | 496 kts | 100° |
| 2026-04-30 09:55 | 40.25037 | 10.73142 | 35112 ft | 496 kts | 100° |
| 2026-04-30 09:55 | 40.23591 | 10.81968 | 35111 ft | 495 kts | 100° |
| 2026-04-30 09:56 | 40.22140 | 10.90778 | 35110 ft | 495 kts | 100° |
| 2026-04-30 09:56 | 40.20682 | 10.99592 | 35113 ft | 494 kts | 100° |
| 2026-04-30 09:57 | 40.19221 | 11.08375 | 35119 ft | 494 kts | 100° |
| 2026-04-30 09:57 | 40.17755 | 11.17149 | 35113 ft | 494 kts | 100° |
| 2026-04-30 09:58 | 40.16282 | 11.25917 | 35115 ft | 493 kts | 100° |
| 2026-04-30 09:58 | 40.14813 | 11.34623 | 35111 ft | 493 kts | 101° |
| 2026-04-30 09:59 | 40.11839 | 11.52114 | 35112 ft | 493 kts | 101° |
| 2026-04-30 10:00 | 40.09589 | 11.65239 | 35118 ft | 492 kts | 101° |
| 2026-04-30 10:01 | 40.07339 | 11.78266 | 35114 ft | 492 kts | 101° |
| 2026-04-30 10:02 | 40.05067 | 11.91330 | 35112 ft | 491 kts | 101° |
| 2026-04-30 10:02 | 40.03547 | 12.00016 | 35114 ft | 491 kts | 101° |
| 2026-04-30 10:03 | 40.02021 | 12.08700 | 35112 ft | 491 kts | 101° |
| 2026-04-30 10:03 | 40.00489 | 12.17374 | 35111 ft | 490 kts | 102° |
| 2026-04-30 10:04 | 39.98953 | 12.26028 | 35109 ft | 489 kts | 102° |
| 2026-04-30 10:04 | 39.97414 | 12.34661 | 35110 ft | 488 kts | 102° |
| 2026-04-30 10:05 | 39.95869 | 12.43289 | 35106 ft | 488 kts | 102° |
| 2026-04-30 10:05 | 39.94322 | 12.51889 | 35114 ft | 487 kts | 102° |
| 2026-04-30 10:06 | 39.92778 | 12.60430 | 35114 ft | 487 kts | 102° |
| 2026-04-30 10:06 | 39.91219 | 12.69020 | 35117 ft | 487 kts | 102° |
| 2026-04-30 10:07 | 39.89653 | 12.77607 | 35113 ft | 487 kts | 102° |
| 2026-04-30 10:07 | 39.88083 | 12.86173 | 35110 ft | 486 kts | 102° |
| 2026-04-30 10:08 | 39.86508 | 12.94732 | 35111 ft | 485 kts | 102° |
| 2026-04-30 10:08 | 39.84939 | 13.03224 | 35107 ft | 484 kts | 102° |
| 2026-04-30 10:09 | 39.83360 | 13.11731 | 35111 ft | 483 kts | 102° |
| 2026-04-30 10:09 | 39.81778 | 13.20216 | 35111 ft | 482 kts | 102° |
| 2026-04-30 10:10 | 39.80190 | 13.28694 | 35111 ft | 481 kts | 102° |
| 2026-04-30 10:10 | 39.78600 | 13.37150 | 35108 ft | 481 kts | 102° |
| 2026-04-30 10:11 | 39.77006 | 13.45589 | 35110 ft | 480 kts | 103° |
| 2026-04-30 10:11 | 39.75409 | 13.54007 | 35110 ft | 479 kts | 103° |
| 2026-04-30 10:12 | 39.73807 | 13.62415 | 35109 ft | 479 kts | 103° |
| 2026-04-30 10:12 | 39.72199 | 13.70820 | 35106 ft | 479 kts | 103° |
| 2026-04-30 10:13 | 39.70597 | 13.79157 | 35109 ft | 478 kts | 103° |
| 2026-04-30 10:13 | 39.68980 | 13.87539 | 35101 ft | 478 kts | 103° |
| 2026-04-30 10:14 | 39.67353 | 13.95938 | 35101 ft | 478 kts | 103° |
| 2026-04-30 10:14 | 39.64908 | 14.08496 | 35100 ft | 478 kts | 103° |
| 2026-04-30 10:15 | 39.63271 | 14.16858 | 35103 ft | 478 kts | 103° |
| 2026-04-30 10:15 | 39.61638 | 14.25166 | 35101 ft | 478 kts | 103° |
| 2026-04-30 10:16 | 39.59988 | 14.33526 | 35095 ft | 478 kts | 104° |
| 2026-04-30 10:17 | 39.57508 | 14.46038 | 35097 ft | 477 kts | 104° |
| 2026-04-30 10:17 | 39.54963 | 14.58504 | 35100 ft | 477 kts | 105° |
| 2026-04-30 10:18 | 39.53170 | 14.66785 | 35095 ft | 476 kts | 105° |
| 2026-04-30 10:19 | 39.50483 | 14.79168 | 35090 ft | 476 kts | 105° |
| 2026-04-30 10:19 | 39.48700 | 14.87407 | 35090 ft | 475 kts | 105° |
| 2026-04-30 10:20 | 39.46913 | 14.95645 | 35087 ft | 475 kts | 105° |
| 2026-04-30 10:20 | 39.44222 | 15.07986 | 35092 ft | 475 kts | 105° |
| 2026-04-30 10:21 | 39.42431 | 15.16160 | 35088 ft | 475 kts | 106° |
| 2026-04-30 10:21 | 39.40620 | 15.24397 | 35095 ft | 476 kts | 106° |
| 2026-04-30 10:22 | 39.38804 | 15.32626 | 35097 ft | 476 kts | 106° |
| 2026-04-30 10:22 | 39.37290 | 15.39460 | 35100 ft | 476 kts | 106° |
| 2026-04-30 10:23 | 39.35459 | 15.47700 | 35104 ft | 476 kts | 106° |
| 2026-04-30 10:23 | 39.33624 | 15.55926 | 35109 ft | 477 kts | 106° |
| 2026-04-30 10:24 | 39.31781 | 15.64158 | 35101 ft | 477 kts | 106° |
| 2026-04-30 10:24 | 39.29932 | 15.72387 | 35118 ft | 478 kts | 107° |
| 2026-04-30 10:25 | 39.28085 | 15.80578 | 35115 ft | 478 kts | 107° |
| 2026-04-30 10:25 | 39.26218 | 15.88826 | 35119 ft | 478 kts | 107° |
| 2026-04-30 10:26 | 39.24347 | 15.97063 | 35121 ft | 478 kts | 107° |
| 2026-04-30 10:26 | 39.22472 | 16.05289 | 35125 ft | 478 kts | 107° |
| 2026-04-30 10:27 | 39.20589 | 16.13521 | 35130 ft | 479 kts | 107° |
| 2026-04-30 10:27 | 39.18697 | 16.21762 | 35129 ft | 479 kts | 107° |
| 2026-04-30 10:28 | 39.16801 | 16.29994 | 35128 ft | 479 kts | 107° |
| 2026-04-30 10:28 | 39.14953 | 16.38185 | 35115 ft | 479 kts | 106° |
| 2026-04-30 10:29 | 39.13176 | 16.46461 | 35118 ft | 479 kts | 106° |
| 2026-04-30 10:29 | 39.11400 | 16.54723 | 35130 ft | 478 kts | 106° |
| 2026-04-30 10:30 | 39.09607 | 16.62969 | 35137 ft | 478 kts | 106° |
| 2026-04-30 10:30 | 39.07802 | 16.71209 | 35129 ft | 478 kts | 106° |
| 2026-04-30 10:31 | 39.05992 | 16.79441 | 35117 ft | 478 kts | 106° |
| 2026-04-30 10:31 | 39.04180 | 16.87658 | 35112 ft | 477 kts | 106° |
| 2026-04-30 10:32 | 39.02362 | 16.95870 | 35105 ft | 478 kts | 107° |
| 2026-04-30 10:32 | 39.00536 | 17.04097 | 35104 ft | 478 kts | 107° |
| 2026-04-30 10:33 | 38.98679 | 17.12303 | 35109 ft | 478 kts | 108° |
| 2026-04-30 10:33 | 38.96711 | 17.20479 | 35103 ft | 479 kts | 108° |
| 2026-04-30 10:34 | 38.94726 | 17.28641 | 35108 ft | 479 kts | 108° |
| 2026-04-30 10:34 | 38.92760 | 17.36766 | 35108 ft | 479 kts | 108° |
| 2026-04-30 10:35 | 38.90785 | 17.44933 | 35105 ft | 479 kts | 108° |
| 2026-04-30 10:35 | 38.88805 | 17.53095 | 35100 ft | 479 kts | 108° |
| 2026-04-30 10:36 | 38.86817 | 17.61258 | 35099 ft | 479 kts | 108° |
| 2026-04-30 10:36 | 38.84824 | 17.69419 | 35096 ft | 479 kts | 108° |
| 2026-04-30 10:37 | 38.82823 | 17.77578 | 35089 ft | 479 kts | 108° |
| 2026-04-30 10:37 | 38.80816 | 17.85736 | 35091 ft | 479 kts | 108° |
| 2026-04-30 10:38 | 38.78805 | 17.93892 | 35087 ft | 479 kts | 108° |
| 2026-04-30 10:38 | 38.76800 | 18.01998 | 35084 ft | 479 kts | 108° |
| 2026-04-30 10:39 | 38.74779 | 18.10140 | 35089 ft | 479 kts | 108° |
| 2026-04-30 10:39 | 38.72753 | 18.18282 | 35086 ft | 479 kts | 108° |
| 2026-04-30 10:40 | 38.70713 | 18.26419 | 35088 ft | 479 kts | 109° |
| 2026-04-30 10:40 | 38.68651 | 18.34535 | 35084 ft | 479 kts | 109° |
| 2026-04-30 10:41 | 38.66595 | 18.42599 | 35081 ft | 479 kts | 109° |
| 2026-04-30 10:41 | 38.64525 | 18.50703 | 35082 ft | 479 kts | 109° |
| 2026-04-30 10:42 | 38.62451 | 18.58804 | 35086 ft | 479 kts | 109° |
| 2026-04-30 10:42 | 38.60369 | 18.66907 | 35085 ft | 479 kts | 109° |
| 2026-04-30 10:43 | 38.58283 | 18.75002 | 35083 ft | 479 kts | 109° |
| 2026-04-30 10:43 | 38.56190 | 18.83096 | 35080 ft | 480 kts | 109° |
| 2026-04-30 10:44 | 38.54094 | 18.91182 | 35078 ft | 480 kts | 109° |
| 2026-04-30 10:44 | 38.51990 | 18.99269 | 35078 ft | 480 kts | 109° |
| 2026-04-30 10:45 | 38.49874 | 19.07363 | 35081 ft | 480 kts | 109° |
| 2026-04-30 10:45 | 38.47755 | 19.15443 | 35082 ft | 480 kts | 109° |
| 2026-04-30 10:46 | 38.45629 | 19.23524 | 35080 ft | 480 kts | 109° |
| 2026-04-30 10:46 | 38.43511 | 19.31554 | 35078 ft | 481 kts | 109° |
| 2026-04-30 10:47 | 38.41370 | 19.39649 | 35080 ft | 481 kts | 109° |
| 2026-04-30 10:47 | 38.39223 | 19.47737 | 35081 ft | 481 kts | 109° |
| 2026-04-30 10:48 | 38.37072 | 19.55814 | 35080 ft | 482 kts | 109° |
| 2026-04-30 10:48 | 38.34911 | 19.63908 | 35079 ft | 482 kts | 109° |
| 2026-04-30 10:49 | 38.32746 | 19.71992 | 35078 ft | 482 kts | 109° |
| 2026-04-30 10:49 | 38.30572 | 19.80067 | 35082 ft | 482 kts | 109° |
| 2026-04-30 10:50 | 38.28401 | 19.88087 | 35078 ft | 482 kts | 109° |
| 2026-04-30 10:50 | 38.26213 | 19.96150 | 35074 ft | 482 kts | 109° |
| 2026-04-30 10:51 | 38.24018 | 20.04218 | 35075 ft | 482 kts | 109° |
| 2026-04-30 10:51 | 38.21817 | 20.12287 | 35077 ft | 482 kts | 109° |
| 2026-04-30 10:52 | 38.19614 | 20.20335 | 35078 ft | 482 kts | 109° |
| 2026-04-30 10:52 | 38.17404 | 20.28386 | 35075 ft | 482 kts | 109° |
| 2026-04-30 10:53 | 38.15189 | 20.36432 | 35075 ft | 482 kts | 109° |
| 2026-04-30 10:53 | 38.12982 | 20.44426 | 35077 ft | 482 kts | 109° |
| 2026-04-30 10:54 | 38.10680 | 20.52424 | 35076 ft | 482 kts | 114° |
| 2026-04-30 10:54 | 38.07835 | 20.60129 | 35073 ft | 482 kts | 117° |
| 2026-04-30 10:55 | 38.04865 | 20.67754 | 35074 ft | 482 kts | 117° |
| 2026-04-30 10:55 | 38.01922 | 20.75399 | 35070 ft | 482 kts | 116° |
| 2026-04-30 10:56 | 37.99013 | 20.83055 | 35068 ft | 482 kts | 116° |
| 2026-04-30 10:56 | 37.96110 | 20.90713 | 35072 ft | 482 kts | 116° |
| 2026-04-30 10:57 | 37.93203 | 20.98364 | 35069 ft | 482 kts | 116° |
| 2026-04-30 10:57 | 37.90289 | 21.06010 | 35069 ft | 482 kts | 116° |
| 2026-04-30 10:58 | 37.87367 | 21.13651 | 35082 ft | 482 kts | 116° |
| 2026-04-30 10:58 | 37.84442 | 21.21283 | 35043 ft | 482 kts | 116° |
| 2026-04-30 10:59 | 37.81531 | 21.28861 | 35052 ft | 482 kts | 116° |
| 2026-04-30 10:59 | 37.78596 | 21.36481 | 35052 ft | 482 kts | 116° |
| 2026-04-30 11:00 | 37.75650 | 21.44110 | 35051 ft | 483 kts | 116° |
| 2026-04-30 11:00 | 37.72701 | 21.51730 | 35053 ft | 483 kts | 116° |
| 2026-04-30 11:01 | 37.69744 | 21.59351 | 35057 ft | 483 kts | 116° |
| 2026-04-30 11:01 | 37.66781 | 21.66969 | 35050 ft | 483 kts | 116° |
| 2026-04-30 11:02 | 37.63811 | 21.74586 | 35053 ft | 483 kts | 117° |
| 2026-04-30 11:02 | 37.60839 | 21.82193 | 35074 ft | 484 kts | 118° |
| 2026-04-30 11:03 | 37.57858 | 21.89802 | 35052 ft | 483 kts | 118° |
| 2026-04-30 11:04 | 37.53382 | 22.01189 | 35037 ft | 483 kts | 118° |
| 2026-04-30 11:04 | 37.50418 | 22.08709 | 35039 ft | 482 kts | 118° |
| 2026-04-30 11:05 | 37.47431 | 22.16270 | 35027 ft | 481 kts | 119° |
| 2026-04-30 11:05 | 37.44445 | 22.23810 | 35027 ft | 481 kts | 119° |
| 2026-04-30 11:06 | 37.41456 | 22.31342 | 35038 ft | 481 kts | 119° |
| 2026-04-30 11:06 | 37.38739 | 22.39041 | 35029 ft | 482 kts | 113° |
| 2026-04-30 11:07 | 37.36377 | 22.46927 | 35025 ft | 482 kts | 112° |
| 2026-04-30 11:07 | 37.34040 | 22.54827 | 35011 ft | 481 kts | 112° |
| 2026-04-30 11:08 | 37.31685 | 22.62640 | 35014 ft | 482 kts | 113° |
| 2026-04-30 11:08 | 37.29285 | 22.70495 | 35017 ft | 482 kts | 113° |
| 2026-04-30 11:09 | 37.26868 | 22.78358 | 35024 ft | 482 kts | 113° |
| 2026-04-30 11:09 | 37.24445 | 22.86221 | 35021 ft | 483 kts | 113° |
| 2026-04-30 11:10 | 37.22426 | 22.92762 | 35031 ft | 484 kts | 113° |
| 2026-04-30 11:10 | 37.19983 | 23.00657 | 35033 ft | 485 kts | 113° |
| 2026-04-30 11:11 | 37.17530 | 23.08562 | 35031 ft | 487 kts | 113° |
| 2026-04-30 11:11 | 37.15066 | 23.16482 | 35031 ft | 488 kts | 113° |
| 2026-04-30 11:12 | 37.12592 | 23.24413 | 35029 ft | 488 kts | 113° |
| 2026-04-30 11:12 | 37.10112 | 23.32338 | 35033 ft | 489 kts | 113° |
| 2026-04-30 11:13 | 37.07626 | 23.40263 | 35031 ft | 489 kts | 113° |
| 2026-04-30 11:13 | 37.05149 | 23.48135 | 35032 ft | 488 kts | 113° |
| 2026-04-30 11:14 | 37.02655 | 23.56039 | 35031 ft | 488 kts | 114° |
| 2026-04-30 11:14 | 37.00157 | 23.63937 | 35032 ft | 487 kts | 114° |
| 2026-04-30 11:15 | 36.97657 | 23.71819 | 35032 ft | 487 kts | 114° |
| 2026-04-30 11:15 | 36.95154 | 23.79685 | 35036 ft | 487 kts | 114° |
| 2026-04-30 11:16 | 36.92650 | 23.87537 | 35031 ft | 486 kts | 114° |
| 2026-04-30 11:16 | 36.90139 | 23.95386 | 35033 ft | 486 kts | 114° |
| 2026-04-30 11:17 | 36.87623 | 24.03233 | 35034 ft | 486 kts | 114° |
| 2026-04-30 11:17 | 36.85104 | 24.11064 | 35033 ft | 486 kts | 114° |
| 2026-04-30 11:18 | 36.82579 | 24.18897 | 35037 ft | 486 kts | 114° |
| 2026-04-30 11:18 | 36.78776 | 24.30651 | 35038 ft | 487 kts | 114° |
| 2026-04-30 11:19 | 36.76244 | 24.38450 | 35040 ft | 488 kts | 114° |
| 2026-04-30 11:19 | 36.73693 | 24.46289 | 35038 ft | 488 kts | 114° |
| 2026-04-30 11:20 | 36.71129 | 24.54144 | 35041 ft | 489 kts | 114° |
| 2026-04-30 11:20 | 36.68559 | 24.61999 | 35036 ft | 490 kts | 114° |
| 2026-04-30 11:21 | 36.65979 | 24.69863 | 35041 ft | 490 kts | 114° |
| 2026-04-30 11:21 | 36.63393 | 24.77723 | 35037 ft | 490 kts | 114° |
| 2026-04-30 11:22 | 36.60801 | 24.85580 | 35037 ft | 490 kts | 114° |
| 2026-04-30 11:22 | 36.58222 | 24.93377 | 35034 ft | 491 kts | 114° |
| 2026-04-30 11:23 | 36.55617 | 25.01234 | 35036 ft | 491 kts | 114° |
| 2026-04-30 11:24 | 36.51703 | 25.12998 | 35038 ft | 491 kts | 114° |
| 2026-04-30 11:24 | 36.49085 | 25.20839 | 35041 ft | 491 kts | 114° |
| 2026-04-30 11:25 | 36.45146 | 25.32602 | 35052 ft | 492 kts | 114° |
| 2026-04-30 11:26 | 36.39884 | 25.48239 | 35052 ft | 493 kts | 114° |
| 2026-04-30 11:26 | 36.37235 | 25.56083 | 35047 ft | 493 kts | 114° |
| 2026-04-30 11:27 | 36.34579 | 25.63925 | 35044 ft | 493 kts | 114° |
| 2026-04-30 11:27 | 36.31913 | 25.71777 | 35045 ft | 494 kts | 114° |
| 2026-04-30 11:28 | 36.27904 | 25.83545 | 35040 ft | 494 kts | 114° |
| 2026-04-30 11:29 | 36.25221 | 25.91397 | 35037 ft | 494 kts | 114° |
| 2026-04-30 11:29 | 36.21187 | 26.03161 | 35042 ft | 495 kts | 114° |
| 2026-04-30 11:30 | 36.17135 | 26.14931 | 35038 ft | 495 kts | 114° |
| 2026-04-30 11:31 | 36.14445 | 26.22722 | 35044 ft | 495 kts | 114° |
| 2026-04-30 11:31 | 36.11734 | 26.30552 | 35043 ft | 495 kts | 114° |
| 2026-04-30 11:32 | 36.09014 | 26.38390 | 35037 ft | 496 kts | 114° |
| 2026-04-30 11:32 | 36.06285 | 26.46230 | 35043 ft | 496 kts | 114° |
| 2026-04-30 11:33 | 36.02185 | 26.57977 | 35036 ft | 496 kts | 114° |
| 2026-04-30 11:33 | 35.99458 | 26.65763 | 35042 ft | 497 kts | 114° |
| 2026-04-30 11:34 | 35.96693 | 26.73636 | 35037 ft | 497 kts | 114° |
| 2026-04-30 11:34 | 35.93938 | 26.81462 | 35037 ft | 497 kts | 114° |
| 2026-04-30 11:35 | 35.91179 | 26.89279 | 35277 ft | 500 kts | 114° |
| 2026-04-30 11:35 | 35.89792 | 26.93202 | 35550 ft | 499 kts | 114° |
| 2026-04-30 11:35 | 35.88406 | 26.97120 | 35796 ft | 497 kts | 114° |
| 2026-04-30 11:36 | 35.87021 | 27.01026 | 35967 ft | 498 kts | 114° |
| 2026-04-30 11:36 | 35.85631 | 27.04943 | 36130 ft | 499 kts | 114° |
| 2026-04-30 11:36 | 35.84240 | 27.08856 | 36323 ft | 499 kts | 114° |
| 2026-04-30 11:36 | 35.82847 | 27.12771 | 36535 ft | 498 kts | 114° |
| 2026-04-30 11:37 | 35.81454 | 27.16681 | 36727 ft | 498 kts | 114° |
| 2026-04-30 11:37 | 35.80062 | 27.20583 | 36901 ft | 498 kts | 114° |
| 2026-04-30 11:37 | 35.78669 | 27.24484 | 37041 ft | 498 kts | 114° |
| 2026-04-30 11:37 | 35.77266 | 27.28406 | 37029 ft | 500 kts | 114° |
| 2026-04-30 11:38 | 35.74460 | 27.36238 | 37036 ft | 498 kts | 114° |
| 2026-04-30 11:38 | 35.71663 | 27.44026 | 37031 ft | 496 kts | 114° |
| 2026-04-30 11:39 | 35.68872 | 27.51777 | 37035 ft | 494 kts | 114° |
| 2026-04-30 11:39 | 35.66089 | 27.59486 | 37037 ft | 493 kts | 114° |
| 2026-04-30 11:40 | 35.63323 | 27.67128 | 37039 ft | 492 kts | 114° |
| 2026-04-30 11:40 | 35.60535 | 27.74814 | 37041 ft | 493 kts | 114° |
| 2026-04-30 11:41 | 35.57738 | 27.82506 | 37041 ft | 494 kts | 114° |
| 2026-04-30 11:41 | 35.54924 | 27.90227 | 37039 ft | 495 kts | 115° |
| 2026-04-30 11:42 | 35.52103 | 27.97947 | 37037 ft | 496 kts | 115° |
| 2026-04-30 11:42 | 35.49268 | 28.05686 | 37039 ft | 498 kts | 115° |
| 2026-04-30 11:43 | 35.46415 | 28.13454 | 37036 ft | 499 kts | 115° |
| 2026-04-30 11:43 | 35.43577 | 28.21164 | 37032 ft | 500 kts | 115° |
| 2026-04-30 11:44 | 35.40708 | 28.28938 | 37034 ft | 500 kts | 115° |
| 2026-04-30 11:44 | 35.37833 | 28.36711 | 37029 ft | 500 kts | 115° |
| 2026-04-30 11:45 | 35.34954 | 28.44475 | 37028 ft | 500 kts | 115° |
| 2026-04-30 11:45 | 35.32073 | 28.52225 | 37030 ft | 499 kts | 115° |
| 2026-04-30 11:46 | 35.29191 | 28.59960 | 37031 ft | 499 kts | 115° |
| 2026-04-30 11:46 | 35.26310 | 28.67673 | 37028 ft | 498 kts | 115° |
| 2026-04-30 11:47 | 35.23427 | 28.75371 | 37030 ft | 497 kts | 115° |
| 2026-04-30 11:47 | 35.20564 | 28.82999 | 37031 ft | 496 kts | 115° |
| 2026-04-30 11:48 | 35.17683 | 28.90659 | 37031 ft | 496 kts | 115° |
| 2026-04-30 11:48 | 35.14800 | 28.98304 | 37027 ft | 495 kts | 115° |
| 2026-04-30 11:49 | 35.11910 | 29.05947 | 37031 ft | 495 kts | 115° |
| 2026-04-30 11:49 | 35.09016 | 29.13587 | 37036 ft | 495 kts | 115° |
| 2026-04-30 11:50 | 35.06116 | 29.21223 | 37031 ft | 495 kts | 115° |
| 2026-04-30 11:50 | 35.03214 | 29.28845 | 37034 ft | 495 kts | 115° |
| 2026-04-30 11:51 | 35.00305 | 29.36468 | 37036 ft | 496 kts | 115° |
| 2026-04-30 11:51 | 34.97407 | 29.44045 | 37033 ft | 496 kts | 115° |
| 2026-04-30 11:52 | 34.94481 | 29.51678 | 37033 ft | 496 kts | 115° |
| 2026-04-30 11:52 | 34.91548 | 29.59310 | 37032 ft | 496 kts | 115° |
| 2026-04-30 11:53 | 34.88632 | 29.66881 | 37035 ft | 497 kts | 115° |
| 2026-04-30 11:53 | 34.85693 | 29.74494 | 37035 ft | 497 kts | 115° |
| 2026-04-30 11:54 | 34.82747 | 29.82108 | 37034 ft | 497 kts | 116° |
| 2026-04-30 11:54 | 34.79799 | 29.89712 | 37036 ft | 496 kts | 116° |
| 2026-04-30 11:55 | 34.76849 | 29.97303 | 37036 ft | 496 kts | 116° |
| 2026-04-30 11:55 | 34.73626 | 30.04657 | 37043 ft | 495 kts | 122° |
| 2026-04-30 11:56 | 34.70568 | 30.10607 | 37035 ft | 494 kts | 124° |
| 2026-04-30 11:56 | 34.66877 | 30.17649 | 37038 ft | 494 kts | 123° |
| 2026-04-30 11:57 | 34.63240 | 30.24680 | 37039 ft | 494 kts | 123° |
| 2026-04-30 11:57 | 34.59614 | 30.31762 | 37038 ft | 493 kts | 123° |
| 2026-04-30 11:58 | 34.55997 | 30.38837 | 37037 ft | 493 kts | 123° |
| 2026-04-30 11:58 | 34.52375 | 30.45906 | 37036 ft | 493 kts | 123° |
| 2026-04-30 11:59 | 34.48752 | 30.52959 | 37037 ft | 493 kts | 123° |
| 2026-04-30 11:59 | 34.45124 | 30.60005 | 37035 ft | 493 kts | 123° |
| 2026-04-30 12:00 | 34.41491 | 30.67045 | 37035 ft | 493 kts | 124° |
| 2026-04-30 12:00 | 34.37856 | 30.74077 | 37035 ft | 493 kts | 124° |
| 2026-04-30 12:01 | 34.34216 | 30.81105 | 37037 ft | 493 kts | 124° |
| 2026-04-30 12:01 | 34.30566 | 30.88136 | 37036 ft | 493 kts | 124° |
| 2026-04-30 12:02 | 34.26913 | 30.95161 | 37041 ft | 493 kts | 124° |
| 2026-04-30 12:02 | 34.23259 | 31.02174 | 37041 ft | 493 kts | 124° |
| 2026-04-30 12:03 | 34.17762 | 31.12697 | 37040 ft | 494 kts | 124° |
| 2026-04-30 12:04 | 34.14116 | 31.19662 | 37046 ft | 494 kts | 124° |
| 2026-04-30 12:04 | 34.10435 | 31.26677 | 37044 ft | 494 kts | 124° |
| 2026-04-30 12:05 | 34.06754 | 31.33680 | 37038 ft | 494 kts | 124° |
| 2026-04-30 12:05 | 34.03065 | 31.40685 | 37048 ft | 495 kts | 125° |
| 2026-04-30 12:06 | 33.99372 | 31.47684 | 37049 ft | 495 kts | 125° |
| 2026-04-30 12:06 | 33.95691 | 31.54645 | 37041 ft | 495 kts | 125° |
| 2026-04-30 12:07 | 33.91979 | 31.61652 | 37042 ft | 495 kts | 125° |
| 2026-04-30 12:07 | 33.88269 | 31.68642 | 37043 ft | 495 kts | 125° |
| 2026-04-30 12:08 | 33.84550 | 31.75635 | 37041 ft | 495 kts | 125° |
| 2026-04-30 12:08 | 33.80829 | 31.82618 | 37041 ft | 495 kts | 125° |
| 2026-04-30 12:09 | 33.77132 | 31.89543 | 37042 ft | 495 kts | 125° |
| 2026-04-30 12:09 | 33.73399 | 31.96522 | 37039 ft | 495 kts | 126° |
| 2026-04-30 12:10 | 33.69670 | 32.03481 | 37041 ft | 495 kts | 126° |
| 2026-04-30 12:10 | 33.65940 | 32.10428 | 37041 ft | 495 kts | 126° |
| 2026-04-30 12:11 | 33.62199 | 32.17383 | 37041 ft | 495 kts | 126° |
| 2026-04-30 12:11 | 33.58481 | 32.24281 | 37039 ft | 495 kts | 126° |
| 2026-04-30 12:12 | 33.54734 | 32.31218 | 37039 ft | 495 kts | 126° |
| 2026-04-30 12:12 | 33.50984 | 32.38151 | 37040 ft | 495 kts | 126° |
| 2026-04-30 12:13 | 33.47223 | 32.45090 | 37036 ft | 496 kts | 126° |
| 2026-04-30 12:13 | 33.43482 | 32.51977 | 37041 ft | 496 kts | 126° |
| 2026-04-30 12:14 | 33.39719 | 32.58894 | 37040 ft | 496 kts | 126° |
| 2026-04-30 12:14 | 33.35947 | 32.65813 | 37035 ft | 496 kts | 126° |
| 2026-04-30 12:14 | 33.34054 | 32.69279 | 36821 ft | 500 kts | 126° |
| 2026-04-30 12:15 | 33.32139 | 32.72782 | 36266 ft | 503 kts | 126° |
| 2026-04-30 12:15 | 33.30229 | 32.76274 | 35700 ft | 502 kts | 126° |
| 2026-04-30 12:15 | 33.28318 | 32.79766 | 35064 ft | 502 kts | 126° |
| 2026-04-30 12:15 | 33.26401 | 32.83264 | 34424 ft | 503 kts | 125° |
| 2026-04-30 12:16 | 33.24479 | 32.86769 | 33691 ft | 506 kts | 125° |
| 2026-04-30 12:16 | 33.22548 | 32.90287 | 32962 ft | 506 kts | 125° |
| 2026-04-30 12:16 | 33.20612 | 32.93810 | 32250 ft | 506 kts | 125° |
| 2026-04-30 12:16 | 33.18679 | 32.97325 | 31536 ft | 507 kts | 126° |
| 2026-04-30 12:17 | 33.14801 | 33.04366 | 30060 ft | 508 kts | 126° |
| 2026-04-30 12:17 | 33.12857 | 33.07889 | 29206 ft | 507 kts | 126° |
| 2026-04-30 12:17 | 33.10929 | 33.11383 | 28674 ft | 500 kts | 126° |
| 2026-04-30 12:18 | 33.09051 | 33.14783 | 28110 ft | 494 kts | 126° |
| 2026-04-30 12:18 | 33.07170 | 33.18185 | 27545 ft | 489 kts | 126° |
| 2026-04-30 12:18 | 33.05306 | 33.21552 | 26996 ft | 483 kts | 126° |
| 2026-04-30 12:18 | 33.03465 | 33.24875 | 26450 ft | 478 kts | 126° |
| 2026-04-30 12:19 | 33.01641 | 33.28163 | 25915 ft | 473 kts | 126° |
| 2026-04-30 12:19 | 32.99832 | 33.31420 | 25384 ft | 469 kts | 126° |
| 2026-04-30 12:19 | 32.98041 | 33.34644 | 24853 ft | 464 kts | 126° |
| 2026-04-30 12:19 | 32.96262 | 33.37843 | 24331 ft | 460 kts | 126° |
| 2026-04-30 12:20 | 32.94501 | 33.41005 | 23795 ft | 457 kts | 126° |
| 2026-04-30 12:20 | 32.92747 | 33.44154 | 23184 ft | 454 kts | 126° |
| 2026-04-30 12:20 | 32.91011 | 33.47267 | 22607 ft | 449 kts | 126° |
| 2026-04-30 12:20 | 32.89287 | 33.50358 | 22081 ft | 444 kts | 126° |
| 2026-04-30 12:21 | 32.87586 | 33.53405 | 21544 ft | 439 kts | 125° |
| 2026-04-30 12:21 | 32.85904 | 33.56415 | 21018 ft | 434 kts | 125° |
| 2026-04-30 12:21 | 32.84243 | 33.59385 | 20500 ft | 429 kts | 125° |
| 2026-04-30 12:21 | 32.82580 | 33.62303 | 19996 ft | 424 kts | 128° |
| 2026-04-30 12:22 | 32.80681 | 33.64953 | 19489 ft | 417 kts | 135° |
| 2026-04-30 12:22 | 32.78697 | 33.67385 | 19000 ft | 413 kts | 136° |
| 2026-04-30 12:22 | 32.76689 | 33.69799 | 18501 ft | 409 kts | 136° |
| 2026-04-30 12:22 | 32.74702 | 33.72192 | 17955 ft | 405 kts | 136° |
| 2026-04-30 12:23 | 32.72739 | 33.74576 | 17404 ft | 401 kts | 135° |
| 2026-04-30 12:23 | 32.70806 | 33.76941 | 16885 ft | 397 kts | 135° |
| 2026-04-30 12:23 | 32.68898 | 33.79285 | 16385 ft | 393 kts | 135° |
| 2026-04-30 12:23 | 32.67012 | 33.81607 | 15893 ft | 389 kts | 135° |
| 2026-04-30 12:24 | 32.65144 | 33.83907 | 15406 ft | 385 kts | 135° |
| 2026-04-30 12:24 | 32.63292 | 33.86186 | 14922 ft | 381 kts | 135° |
| 2026-04-30 12:24 | 32.61456 | 33.88444 | 14447 ft | 378 kts | 135° |
| 2026-04-30 12:24 | 32.59634 | 33.90683 | 13969 ft | 375 kts | 135° |
| 2026-04-30 12:25 | 32.57826 | 33.92903 | 13453 ft | 373 kts | 135° |
| 2026-04-30 12:25 | 32.56031 | 33.95105 | 12961 ft | 369 kts | 135° |
| 2026-04-30 12:25 | 32.54303 | 33.97250 | 12702 ft | 360 kts | 135° |
| 2026-04-30 12:25 | 32.52589 | 33.99392 | 12427 ft | 356 kts | 135° |
| 2026-04-30 12:26 | 32.50897 | 34.01507 | 12154 ft | 352 kts | 135° |
| 2026-04-30 12:26 | 32.49208 | 34.03617 | 11908 ft | 355 kts | 135° |
| 2026-04-30 12:26 | 32.47497 | 34.05749 | 11642 ft | 359 kts | 135° |
| 2026-04-30 12:26 | 32.45782 | 34.07885 | 11374 ft | 356 kts | 135° |
| 2026-04-30 12:27 | 32.44088 | 34.09997 | 11098 ft | 350 kts | 134° |
| 2026-04-30 12:27 | 32.42756 | 34.12361 | 10815 ft | 345 kts | 114° |
| 2026-04-30 12:27 | 32.42108 | 34.15070 | 10594 ft | 338 kts | 104° |
| 2026-04-30 12:27 | 32.41643 | 34.17775 | 10343 ft | 332 kts | 103° |
| 2026-04-30 12:28 | 32.41203 | 34.20432 | 10094 ft | 326 kts | 103° |
| 2026-04-30 12:28 | 32.40762 | 34.23032 | 9973 ft | 316 kts | 103° |
| 2026-04-30 12:28 | 32.40327 | 34.25524 | 9962 ft | 302 kts | 104° |
| 2026-04-30 12:28 | 32.39893 | 34.27950 | 9483 ft | 306 kts | 104° |
| 2026-04-30 12:29 | 32.39451 | 34.30400 | 9168 ft | 303 kts | 104° |
| 2026-04-30 12:29 | 32.39020 | 34.32784 | 8980 ft | 296 kts | 104° |
| 2026-04-30 12:29 | 32.38596 | 34.35134 | 8840 ft | 288 kts | 104° |
| 2026-04-30 12:29 | 32.38182 | 34.37424 | 8723 ft | 282 kts | 104° |
| 2026-04-30 12:30 | 32.37771 | 34.39690 | 8614 ft | 281 kts | 104° |
| 2026-04-30 12:30 | 32.37359 | 34.41954 | 8515 ft | 283 kts | 104° |
| 2026-04-30 12:30 | 32.36943 | 34.44249 | 8406 ft | 288 kts | 105° |
| 2026-04-30 12:30 | 32.36521 | 34.46565 | 8289 ft | 288 kts | 105° |
| 2026-04-30 12:31 | 32.36102 | 34.48874 | 8166 ft | 286 kts | 104° |
| 2026-04-30 12:31 | 32.35750 | 34.50797 | 8076 ft | 285 kts | 106° |
| 2026-04-30 12:31 | 32.34981 | 34.52906 | 7948 ft | 277 kts | 129° |
| 2026-04-30 12:32 | 32.33728 | 34.54595 | 7979 ft | 272 kts | 136° |
| 2026-04-30 12:32 | 32.32418 | 34.56182 | 7986 ft | 275 kts | 137° |
| 2026-04-30 12:32 | 32.31064 | 34.57806 | 7990 ft | 278 kts | 137° |
| 2026-04-30 12:32 | 32.29707 | 34.59443 | 7988 ft | 278 kts | 136° |
| 2026-04-30 12:33 | 32.28364 | 34.61073 | 7984 ft | 276 kts | 136° |
| 2026-04-30 12:33 | 32.27031 | 34.62699 | 7978 ft | 275 kts | 136° |
| 2026-04-30 12:33 | 32.25703 | 34.64324 | 7976 ft | 274 kts | 136° |
| 2026-04-30 12:33 | 32.24379 | 34.65945 | 7972 ft | 274 kts | 136° |
| 2026-04-30 12:34 | 32.23057 | 34.67563 | 7970 ft | 274 kts | 136° |
| 2026-04-30 12:34 | 32.21734 | 34.69181 | 7969 ft | 274 kts | 136° |
| 2026-04-30 12:34 | 32.20412 | 34.70801 | 7968 ft | 274 kts | 136° |
| 2026-04-30 12:34 | 32.19083 | 34.72428 | 7971 ft | 275 kts | 136° |
| 2026-04-30 12:35 | 32.17757 | 34.74050 | 7962 ft | 274 kts | 136° |
| 2026-04-30 12:35 | 32.16434 | 34.75669 | 7815 ft | 272 kts | 136° |
| 2026-04-30 12:35 | 32.15274 | 34.77424 | 7496 ft | 275 kts | 120° |
| 2026-04-30 12:35 | 32.14480 | 34.79485 | 7195 ft | 276 kts | 117° |
| 2026-04-30 12:36 | 32.13700 | 34.81540 | 7005 ft | 273 kts | 117° |
| 2026-04-30 12:36 | 32.12913 | 34.83569 | 6737 ft | 272 kts | 118° |
| 2026-04-30 12:36 | 32.12121 | 34.85588 | 6471 ft | 271 kts | 118° |
| 2026-04-30 12:36 | 32.11327 | 34.87597 | 6188 ft | 270 kts | 117° |
| 2026-04-30 12:37 | 32.10535 | 34.89600 | 6038 ft | 268 kts | 118° |
| 2026-04-30 12:37 | 32.09746 | 34.91593 | 6006 ft | 268 kts | 118° |
| 2026-04-30 12:37 | 32.08954 | 34.93590 | 6014 ft | 270 kts | 117° |
| 2026-04-30 12:37 | 32.08163 | 34.95590 | 6003 ft | 267 kts | 117° |
| 2026-04-30 12:38 | 32.07379 | 34.97573 | 5984 ft | 267 kts | 117° |
| 2026-04-30 12:38 | 32.06588 | 34.99565 | 5988 ft | 269 kts | 117° |
| 2026-04-30 12:38 | 32.05803 | 35.01541 | 5991 ft | 269 kts | 117° |
| 2026-04-30 12:38 | 32.05009 | 35.03534 | 5999 ft | 269 kts | 117° |
| 2026-04-30 12:39 | 32.04211 | 35.05549 | 5815 ft | 272 kts | 116° |
| 2026-04-30 12:39 | 32.03408 | 35.07575 | 5696 ft | 274 kts | 117° |
| 2026-04-30 12:39 | 32.02600 | 35.09601 | 5564 ft | 274 kts | 116° |
| 2026-04-30 12:39 | 32.01792 | 35.11641 | 5366 ft | 273 kts | 116° |
| 2026-04-30 12:40 | 32.00992 | 35.13652 | 5205 ft | 268 kts | 117° |
| 2026-04-30 12:40 | 31.99872 | 35.15360 | 4987 ft | 263 kts | 144° |
| 2026-04-30 12:40 | 31.98277 | 35.16286 | 4882 ft | 256 kts | 165° |
| 2026-04-30 12:40 | 31.96527 | 35.16484 | 4734 ft | 251 kts | 179° |
| 2026-04-30 12:41 | 31.94787 | 35.16416 | 4554 ft | 249 kts | 188° |
| 2026-04-30 12:41 | 31.93667 | 35.16148 | 4449 ft | 247 kts | 194° |
| 2026-04-30 12:41 | 31.91504 | 35.15384 | 4210 ft | 242 kts | 208° |
| 2026-04-30 12:41 | 31.90611 | 35.14597 | 4133 ft | 235 kts | 229° |
| 2026-04-30 12:42 | 31.89700 | 35.12396 | 3938 ft | 223 kts | 263° |
| 2026-04-30 12:42 | 31.89624 | 35.10614 | 3803 ft | 213 kts | 273° |
| 2026-04-30 12:42 | 31.89992 | 35.08992 | 3732 ft | 200 kts | 297° |
| 2026-04-30 12:42 | 31.90592 | 35.07594 | 3669 ft | 180 kts | 298° |
| 2026-04-30 12:43 | 31.91199 | 35.06358 | 3553 ft | 172 kts | 302° |
| 2026-04-30 12:43 | 31.91605 | 35.05569 | 3451 ft | 171 kts | 301° |
| 2026-04-30 12:43 | 31.92221 | 35.04383 | 3218 ft | 167 kts | 300° |
| 2026-04-30 12:43 | 31.92803 | 35.03204 | 2954 ft | 159 kts | 296° |
| 2026-04-30 12:44 | 31.93360 | 35.02133 | 2732 ft | 152 kts | 305° |
| 2026-04-30 12:44 | 31.93937 | 35.01084 | 2550 ft | 155 kts | 302° |
| 2026-04-30 12:44 | 31.94505 | 34.99991 | 2309 ft | 156 kts | 300° |
| 2026-04-30 12:44 | 31.95054 | 34.98924 | 2107 ft | 150 kts | 302° |
| 2026-04-30 12:45 | 31.95589 | 34.97897 | 1874 ft | 145 kts | 302° |
| 2026-04-30 12:45 | 31.96118 | 34.96910 | 1701 ft | 143 kts | 302° |
| 2026-04-30 12:45 | 31.96640 | 34.95871 | 1513 ft | 150 kts | 302° |
| 2026-04-30 12:45 | 31.97179 | 34.94824 | 1266 ft | 146 kts | 303° |
| 2026-04-30 12:46 | 31.97699 | 34.93831 | 1075 ft | 141 kts | 303° |
| 2026-04-30 12:46 | 31.98227 | 34.92810 | 894 ft | 151 kts | 304° |
| 2026-04-30 12:46 | 31.98793 | 34.91722 | 663 ft | 157 kts | 304° |
| 2026-04-30 12:46 | 31.99363 | 34.90622 | 416 ft | 154 kts | 304° |
| 2026-04-30 12:47 | 31.99903 | 34.89596 | 203 ft | 142 kts | 305° |
| 2026-04-30 12:47 | 32.00395 | 34.88662 | 118 ft | 120 kts | 301° |
| 2026-04-30 12:47 | 32.00716 | 34.88037 | 115 ft | 64 kts | 301° |
| 2026-04-30 12:47 | 32.00930 | 34.87624 | 118 ft | 54 kts | 301° |
| 2026-04-30 12:48 | 32.01047 | 34.87347 | 118 ft | 24 kts | 284° |
| 2026-04-30 12:48 | 32.01063 | 34.87170 | 119 ft | 15 kts | 271° |
| 2026-04-30 12:48 | 32.01047 | 34.87056 | 116 ft | 14 kts | 234° |
| 2026-04-30 12:48 | 32.00987 | 34.87090 | 118 ft | 12 kts | 120° |
| 2026-04-30 12:49 | 32.00946 | 34.87172 | 117 ft | 12 kts | 123° |
| 2026-04-30 12:49 | 32.00877 | 34.87180 | 116 ft | 11 kts | 211° |
| 2026-04-30 12:49 | 32.00814 | 34.87131 | 119 ft | 11 kts | 214° |
| 2026-04-30 12:49 | 32.00751 | 34.87099 | 119 ft | 9 kts | 173° |
| 2026-04-30 12:50 | 32.00730 | 34.87100 | 115 ft | 0 kts | 200° |
| 2026-04-30 12:51 | 32.00729 | 34.87099 | 115 ft | 1 kts | 202° |
| 2026-04-30 12:51 | 32.00717 | 34.87086 | 119 ft | 4 kts | 223° |
| 2026-04-30 12:51 | 32.00689 | 34.87055 | 119 ft | 7 kts | 223° |
| 2026-04-30 12:51 | 32.00644 | 34.87013 | 119 ft | 10 kts | 213° |
| 2026-04-30 12:52 | 32.00582 | 34.86972 | 116 ft | 11 kts | 190° |
| 2026-04-30 12:52 | 32.00521 | 34.87009 | 117 ft | 8 kts | 138° |
| 2026-04-30 12:52 | 32.00506 | 34.87069 | 119 ft | 8 kts | 90° |
| 2026-04-30 12:52 | 32.00506 | 34.87094 | 119 ft | 2 kts | 89° |
| 2026-04-30 12:53 | 32.00506 | 34.87103 | 119 ft | 0 kts | 89° |
| 2026-04-30 12:53 | 32.00506 | 34.87108 | 119 ft | 0 kts | 89° |